Latest Weather Observations for Melville Water

IDW60901

Issued at 6:21 pm WST Sunday 10 May 2026 (issued every 10 minutes, with the page automatically refreshed every 10 minutes)

About weather observations | Map of Perth area stations | Latest observations for Perth area | Other Formats
Station Details ID: 009091 Name: INNER DOLPHIN PYLON Lat: -31.99 Lon: 115.83 Height: 0.0 m
Data from the previous 72 hours. | See also: Recent months at Melville Water
Date/Time
WST
Temp
°C
App
Temp
°C
Dew
Point
°C
Rel
Hum
%
Delta-T
°C
Wind Press
QNH
hPa
Press
MSL
hPa
Rain since
9am
mm
Dir  Spd
km/h
Gust
km/h
Spd
kts
Gust
kts
10/06:00pm - - - - - ENE 11 13 6 7 - - -
10/05:30pm - - - - - ENE 13 17 7 9 - - -
10/05:00pm - - - - - ENE 11 13 6 7 - - -
10/04:30pm - - - - - ENE 7 11 4 6 - - -
10/04:00pm - - - - - ENE 9 17 5 9 - - -
10/03:30pm - - - - - ENE 13 19 7 10 - - -
10/03:00pm - - - - - NE 13 19 7 10 - - -
10/02:30pm - - - - - NE 11 22 6 12 - - -
10/02:00pm - - - - - ENE 9 15 5 8 - - -
10/01:30pm - - - - - NE 17 20 9 11 - - -
10/01:00pm - - - - - NNE 15 28 8 15 - - -
10/12:30pm - - - - - NNE 13 19 7 10 - - -
10/12:00pm - - - - - NE 13 20 7 11 - - -
10/11:30am - - - - - NE 13 20 7 11 - - -
10/11:00am - - - - - NE 17 30 9 16 - - -
10/10:30am - - - - - NE 19 26 10 14 - - -
10/10:00am - - - - - NE 20 28 11 15 - - -
10/09:30am - - - - - NE 19 24 10 13 - - -
10/09:00am - - - - - NE 15 20 8 11 - - -
10/08:30am - - - - - ENE 13 15 7 8 - - -
10/08:00am - - - - - ENE 13 19 7 10 - - -
10/07:30am - - - - - E 9 11 5 6 - - -
10/07:00am - - - - - ENE 13 15 7 8 - - -
10/06:30am - - - - - ENE 11 13 6 7 - - -
10/06:00am - - - - - ENE 15 19 8 10 - - -
10/05:30am - - - - - ENE 17 19 9 10 - - -
10/05:00am - - - - - ENE 15 19 8 10 - - -
10/04:30am - - - - - ENE 17 20 9 11 - - -
10/04:00am - - - - - ENE 22 28 12 15 - - -
10/03:30am - - - - - ENE 22 32 12 17 - - -
10/03:00am - - - - - ENE 22 28 12 15 - - -
10/02:30am - - - - - ENE 19 24 10 13 - - -
10/02:00am - - - - - ENE 19 22 10 12 - - -
10/01:30am - - - - - ENE 17 19 9 10 - - -
10/01:00am - - - - - ENE 15 17 8 9 - - -
10/12:30am - - - - - ENE 15 17 8 9 - - -
10/12:00am - - - - - ENE 13 15 7 8 - - -
 
Date/Time
WST
Temp
°C
App
Temp
°C
Dew
Point
°C
Rel
Hum
%
Delta-T
°C
Wind Press
QNH
hPa
Press
MSL
hPa
Rain since
9am
mm
Dir  Spd
km/h
Gust
km/h
Spd
kts
Gust
kts
09/11:30pm - - - - - ENE 15 17 8 9 - - -
09/11:00pm - - - - - NE 9 11 5 6 - - -
09/10:30pm - - - - - ENE 6 7 3 4 - - -
09/10:00pm - - - - - ENE 9 11 5 6 - - -
09/09:30pm - - - - - ENE 9 11 5 6 - - -
09/09:00pm - - - - - ENE 6 7 3 4 - - -
09/08:30pm - - - - - ENE 7 7 4 4 - - -
09/08:00pm - - - - - ENE 6 9 3 5 - - -
09/07:30pm - - - - - E 9 11 5 6 - - -
09/07:00pm - - - - - E 9 11 5 6 - - -
09/06:30pm - - - - - E 9 11 5 6 - - -
09/06:00pm - - - - - E 11 13 6 7 - - -
09/05:30pm - - - - - E 13 17 7 9 - - -
09/05:00pm - - - - - E 15 19 8 10 - - -
09/04:30pm - - - - - ENE 11 15 6 8 - - -
09/04:00pm - - - - - E 11 17 6 9 - - -
09/03:30pm - - - - - ENE 13 20 7 11 - - -
09/03:00pm - - - - - NE 13 22 7 12 - - -
09/02:30pm - - - - - ENE 17 20 9 11 - - -
09/02:00pm - - - - - NE 15 22 8 12 - - -
09/01:30pm - - - - - ENE 15 26 8 14 - - -
09/01:00pm - - - - - ENE 20 28 11 15 - - -
09/12:30pm - - - - - ENE 17 28 9 15 - - -
09/12:00pm - - - - - NE 22 30 12 16 - - -
09/11:30am - - - - - ENE 20 28 11 15 - - -
09/11:00am - - - - - NE 20 33 11 18 - - -
09/10:30am - - - - - NE 28 39 15 21 - - -
09/10:00am - - - - - NE 30 41 16 22 - - -
09/09:30am - - - - - NE 24 32 13 17 - - -
09/09:00am - - - - - NE 24 37 13 20 - - -
09/08:30am - - - - - NE 20 30 11 16 - - -
09/08:00am - - - - - ENE 19 24 10 13 - - -
09/07:30am - - - - - ENE 19 22 10 12 - - -
09/07:00am - - - - - ENE 17 22 9 12 - - -
09/06:30am - - - - - NE 19 24 10 13 - - -
09/06:00am - - - - - NE 20 32 11 17 - - -
09/05:30am - - - - - NE 24 32 13 17 - - -
09/05:00am - - - - - NE 22 32 12 17 - - -
09/04:30am - - - - - NE 20 30 11 16 - - -
09/04:00am - - - - - NE 17 24 9 13 - - -
09/03:30am - - - - - ENE 17 26 9 14 - - -
09/03:00am - - - - - ENE 20 26 11 14 - - -
09/02:30am - - - - - ENE 22 30 12 16 - - -
09/02:00am - - - - - ENE 30 41 16 22 - - -
09/01:30am - - - - - ENE 26 33 14 18 - - -
09/01:00am - - - - - ENE 26 35 14 19 - - -
09/12:30am - - - - - NE 24 33 13 18 - - -
09/12:00am - - - - - ENE 24 33 13 18 - - -
 
Date/Time
WST
Temp
°C
App
Temp
°C
Dew
Point
°C
Rel
Hum
%
Delta-T
°C
Wind Press
QNH
hPa
Press
MSL
hPa
Rain since
9am
mm
Dir  Spd
km/h
Gust
km/h
Spd
kts
Gust
kts
08/11:30pm - - - - - ENE 17 22 9 12 - - -
08/11:00pm - - - - - ENE 17 24 9 13 - - -
08/10:30pm - - - - - ENE 15 22 8 12 - - -
08/10:00pm - - - - - ENE 17 20 9 11 - - -
08/09:30pm - - - - - ENE 19 22 10 12 - - -
08/09:00pm - - - - - ENE 19 26 10 14 - - -
08/08:30pm - - - - - ENE 13 17 7 9 - - -
08/08:00pm - - - - - E 15 19 8 10 - - -
08/07:30pm - - - - - E 17 22 9 12 - - -
08/07:00pm - - - - - E 11 13 6 7 - - -
08/06:30pm - - - - - ENE 19 26 10 14 - - -
08/06:00pm - - - - - ENE 17 24 9 13 - - -
08/05:30pm - - - - - ENE 20 28 11 15 - - -
08/05:00pm - - - - - E 26 37 14 20 - - -
08/04:30pm - - - - - ENE 28 37 15 20 - - -
08/04:00pm - - - - - ENE 22 30 12 16 - - -
08/03:30pm - - - - - ENE 30 37 16 20 - - -
08/03:00pm - - - - - ENE 24 33 13 18 - - -
08/02:30pm - - - - - E 19 32 10 17 - - -
08/02:00pm - - - - - ENE 19 28 10 15 - - -
08/01:30pm - - - - - E 24 37 13 20 - - -
08/01:00pm - - - - - ENE 22 32 12 17 - - -
08/12:30pm - - - - - NE 24 32 13 17 - - -
08/12:00pm - - - - - ENE 20 28 11 15 - - -
08/11:30am - - - - - ENE 24 33 13 18 - - -
08/11:00am - - - - - NE 28 39 15 21 - - -
08/10:30am - - - - - NE 28 41 15 22 - - -
08/10:00am - - - - - ENE 20 32 11 17 - - -
08/09:30am - - - - - ENE 24 32 13 17 - - -
08/09:00am - - - - - ENE 20 26 11 14 - - -
08/08:30am - - - - - ENE 17 24 9 13 - - -
08/08:00am - - - - - ENE 17 22 9 12 - - -
08/07:30am - - - - - E 19 24 10 13 - - -
08/07:00am - - - - - E 15 20 8 11 - - -
08/06:30am - - - - - E 15 20 8 11 - - -
08/06:00am - - - - - E 13 17 7 9 - - -
08/05:30am - - - - - E 15 19 8 10 - - -
08/05:00am - - - - - ENE 13 19 7 10 - - -
08/04:30am - - - - - E 13 17 7 9 - - -
08/04:00am - - - - - ENE 11 15 6 8 - - -
08/03:30am - - - - - ENE 13 20 7 11 - - -
08/03:00am - - - - - ENE 15 20 8 11 - - -
08/02:30am - - - - - ENE 15 19 8 10 - - -
08/02:00am - - - - - ENE 15 20 8 11 - - -
08/01:30am - - - - - ENE 15 20 8 11 - - -
08/01:00am - - - - - ENE 15 20 8 11 - - -
08/12:30am - - - - - ENE 20 28 11 15 - - -
08/12:00am - - - - - ENE 19 26 10 14 - - -
 
Date/Time
WST
Temp
°C
App
Temp
°C
Dew
Point
°C
Rel
Hum
%
Delta-T
°C
Wind Press
QNH
hPa
Press
MSL
hPa
Rain since
9am
mm
Dir  Spd
km/h
Gust
km/h
Spd
kts
Gust
kts
07/11:30pm - - - - - ENE 17 22 9 12 - - -
07/11:00pm - - - - - ENE 17 26 9 14 - - -
07/10:30pm - - - - - ENE 17 24 9 13 - - -
07/10:00pm - - - - - E 15 20 8 11 - - -
07/09:30pm - - - - - ESE 11 19 6 10 - - -
07/09:00pm - - - - - E 19 26 10 14 - - -
07/08:30pm - - - - - E 17 28 9 15 - - -
07/08:00pm - - - - - E 17 22 9 12 - - -
07/07:30pm - - - - - ESE 17 22 9 12 - - -
07/07:00pm - - - - - ESE 19 28 10 15 - - -
07/06:30pm - - - - - ESE 17 20 9 11 - - -

Latest Capital City Observations: Canberra | Sydney | Melbourne | Brisbane | Adelaide | Perth | Hobart | Darwin

Other formats

Comma delimited format used in spreadsheet applications
http://www.bom.gov.au/fwo/IDW60901/IDW60901.95620.axf

JavaScript Object Notation format (JSON) in row-major order
http://www.bom.gov.au/fwo/IDW60901/IDW60901.95620.json

Data quality

Most of these data are generated automatically and are frequently updated. Quality checks on data are not normally performed. It is possible for incorrect values to appear. Refer to information at About Latest Weather Observations and please check the disclaimer before using these data.